Melksham, United Kingdom
Current Conditions -  °F | °C
As of 9:50 PM on Sunday 25 Jan 2015 (Local Time) from EGDM Reporting Station
Broken Clouds Broken Clouds  
Wind Chill: 40°   Ceiling: 1100
Heat Index: 45°   Visibility: 6mi
Dew Point: 43°   Wind: 9mph
Humidity: 93%   Direction: 230°SW
Pressure: 30.3"   Gusts: NA
Location:  51.37°N, 2.14°W
Report Text: EGDM 252150Z AUTO 23008KT 9999 BKN011/// 07/06 Q1026
Loading
Personal Weather Stations






























Interactive Weather Map New forecast layout! Learn more

10-Day Weather Forecast

Advertisements
Track Severe Weather on mobile